Time,TemperatureF,DewpointF,PressureIn,WindDirection,WindDirectionDegrees,WindSpeedMPH,WindSpeedGustMPH,Humidity,HourlyPrecipIn,Conditions,Clouds,dailyrainin,SolarRadiationWatts/m^2,SoftwareType,DateUTC
2013-12-09 00:01:00,29.9,25.9,30.44,NE,46,1.0,2.0,85,0.00,,,0.00,0,Wunderground v.1.15,2013-12-09 05:01:00,
2013-12-09 00:03:00,30.0,26.0,30.43,NE,42,1.0,2.0,85,0.00,,,0.00,0,Wunderground v.1.15,2013-12-09 05:03:00,
2013-12-09 00:05:00,30.0,26.0,30.44,NE,44,1.0,2.0,85,0.00,,,0.00,0,Wunderground v.1.15,2013-12-09 05:05:00,
2013-12-09 00:06:00,30.1,26.1,30.44,NE,44,1.0,2.0,85,0.00,,,0.00,0,Wunderground v.1.15,2013-12-09 05:06:00,
2013-12-09 00:07:00,30.1,26.1,30.43,NE,44,1.0,2.0,85,0.00,,,0.00,0,Wunderground v.1.15,2013-12-09 05:07:00,
2013-12-09 00:08:00,30.1,26.1,30.43,NE,55,1.0,2.0,85,0.00,,,0.00,0,Wunderground v.1.15,2013-12-09 05:08:00,
2013-12-09 00:14:00,30.2,26.2,30.43,NE,39,1.0,2.0,85,0.00,,,0.00,0,Wunderground v.1.15,2013-12-09 05:14:00,
2013-12-09 00:20:00,30.3,26.3,30.42,NE,52,1.0,1.0,85,0.00,,,0.00,0,Wunderground v.1.15,2013-12-09 05:20:00,
2013-12-09 00:26:00,30.3,26.3,30.42,NE,42,2.0,4.0,85,0.00,,,0.00,0,Wunderground v.1.15,2013-12-09 05:26:00,
2013-12-09 00:32:00,30.5,26.5,30.42,NE,51,2.0,3.0,85,0.00,,,0.00,0,Wunderground v.1.15,2013-12-09 05:32:00,
2013-12-09 00:38:00,30.6,26.6,30.41,ENE,59,2.0,3.0,85,0.00,,,0.00,0,Wunderground v.1.15,2013-12-09 05:38:00,
2013-12-09 00:43:00,30.7,26.7,30.40,NE,40,2.0,3.0,85,0.00,,,0.00,0,Wunderground v.1.15,2013-12-09 05:43:00,
2013-12-09 00:49:00,30.8,26.8,30.40,ENE,59,2.0,7.0,85,0.00,,,0.00,0,Wunderground v.1.15,2013-12-09 05:49:00,
2013-12-09 00:54:00,30.8,26.8,30.40,ENE,76,2.0,3.0,85,0.00,,,0.00,0,Wunderground v.1.15,2013-12-09 05:54:00,
2013-12-09 01:00:00,30.9,26.9,30.39,ENE,58,3.0,3.0,85,0.00,,,0.00,0,Wunderground v.1.15,2013-12-09 06:00:00,
2013-12-09 01:06:00,31.0,27.0,30.39,NE,52,2.0,3.0,85,0.00,,,0.00,0,Wunderground v.1.15,2013-12-09 06:06:00,
2013-12-09 01:11:00,31.1,27.1,30.39,ENE,60,0.0,3.0,85,0.00,,,0.00,0,Wunderground v.1.15,2013-12-09 06:11:00,
2013-12-09 01:17:00,31.2,27.2,30.38,ENE,60,0.0,3.0,85,0.00,,,0.00,0,Wunderground v.1.15,2013-12-09 06:17:00,
2013-12-09 01:23:00,31.2,27.2,30.38,ENE,60,0.0,3.0,85,0.00,,,0.00,0,Wunderground v.1.15,2013-12-09 06:23:00,
2013-12-09 01:28:00,31.2,27.2,30.38,ENE,65,1.0,3.0,85,0.00,,,0.00,0,Wunderground v.1.15,2013-12-09 06:28:00,
2013-12-09 01:34:00,31.4,27.4,30.38,ENE,58,2.0,3.0,85,0.00,,,0.00,0,Wunderground v.1.15,2013-12-09 06:34:00,
2013-12-09 01:40:00,31.5,27.5,30.38,ENE,57,1.0,4.0,85,0.00,,,0.00,0,Wunderground v.1.15,2013-12-09 06:40:00,
2013-12-09 01:45:00,31.5,27.5,30.38,NE,40,1.0,4.0,85,0.00,,,0.00,0,Wunderground v.1.15,2013-12-09 06:45:00,
2013-12-09 01:51:00,31.6,27.6,30.37,NE,51,1.0,3.0,85,0.00,,,0.00,0,Wunderground v.1.15,2013-12-09 06:51:00,
2013-12-09 01:57:00,31.7,27.7,30.36,ENE,60,2.0,4.0,85,0.00,,,0.00,0,Wunderground v.1.15,2013-12-09 06:57:00,
2013-12-09 02:02:00,31.7,27.7,30.36,East,101,2.0,2.0,85,0.00,,,0.00,0,Wunderground v.1.15,2013-12-09 07:02:00,
2013-12-09 02:08:00,31.8,27.8,30.36,ENE,69,3.0,5.0,85,0.00,,,0.00,0,Wunderground v.1.15,2013-12-09 07:08:00,
2013-12-09 02:14:00,31.9,27.9,30.36,ENE,65,3.0,3.0,85,0.00,,,0.00,0,Wunderground v.1.15,2013-12-09 07:14:00,
2013-12-09 02:19:00,31.9,27.9,30.36,ENE,66,3.0,5.0,85,0.00,,,0.00,0,Wunderground v.1.15,2013-12-09 07:19:00,
2013-12-09 02:25:00,32.0,28.0,30.36,NE,49,3.0,4.0,85,0.00,,,0.00,0,Wunderground v.1.15,2013-12-09 07:25:00,
2013-12-09 02:31:00,32.1,28.1,30.35,ENE,63,3.0,3.0,85,0.00,,,0.00,0,Wunderground v.1.15,2013-12-09 07:31:00,
2013-12-09 02:36:00,32.1,28.1,30.35,NE,51,3.0,5.0,85,0.00,,,0.00,0,Wunderground v.1.15,2013-12-09 07:36:00,
2013-12-09 02:42:00,32.1,28.1,30.35,East,94,3.0,5.0,85,0.00,,,0.00,0,Wunderground v.1.15,2013-12-09 07:42:00,
2013-12-09 02:47:00,32.1,28.1,30.34,ESE,111,4.0,5.0,85,0.00,,,0.00,0,Wunderground v.1.15,2013-12-09 07:47:00,
2013-12-09 02:53:00,32.1,28.1,30.34,ENE,74,3.0,5.0,85,0.00,,,0.00,0,Wunderground v.1.15,2013-12-09 07:53:00,
2013-12-09 02:59:00,32.1,28.1,30.34,ENE,65,3.0,7.0,85,0.00,,,0.00,0,Wunderground v.1.15,2013-12-09 07:59:00,
2013-12-09 03:04:00,32.1,28.1,30.33,East,92,4.0,9.0,85,0.00,,,0.00,0,Wunderground v.1.15,2013-12-09 08:04:00,
2013-12-09 03:10:00,32.1,28.1,30.33,NE,39,4.0,9.0,85,0.00,,,0.00,0,Wunderground v.1.15,2013-12-09 08:10:00,
2013-12-09 03:15:00,32.1,28.1,30.32,NE,54,4.0,9.0,85,0.00,,,0.00,0,Wunderground v.1.15,2013-12-09 08:15:00,
2013-12-09 03:21:00,32.1,28.1,30.32,East,84,4.0,9.0,85,0.00,,,0.00,0,Wunderground v.1.15,2013-12-09 08:21:00,
2013-12-09 03:26:00,32.1,28.1,30.31,ENE,59,4.0,9.0,85,0.00,,,0.00,0,Wunderground v.1.15,2013-12-09 08:26:00,
2013-12-09 03:32:00,32.2,28.2,30.31,ENE,63,4.0,9.0,85,0.00,,,0.00,0,Wunderground v.1.15,2013-12-09 08:32:00,
2013-12-09 03:38:00,32.2,28.2,30.30,ENE,65,4.0,9.0,85,0.00,,,0.00,0,Wunderground v.1.15,2013-12-09 08:38:00,
2013-12-09 03:44:00,32.2,28.2,30.30,ENE,61,4.0,9.0,85,0.00,,,0.00,0,Wunderground v.1.15,2013-12-09 08:44:00,
2013-12-09 03:49:00,32.3,28.3,30.29,ENE,62,3.0,9.0,85,0.00,,,0.00,0,Wunderground v.1.15,2013-12-09 08:49:00,
2013-12-09 03:55:00,32.4,28.4,30.29,NE,55,2.0,9.0,85,0.00,,,0.00,0,Wunderground v.1.15,2013-12-09 08:55:00,
2013-12-09 04:00:00,32.4,28.4,30.28,ENE,65,2.0,9.0,85,0.00,,,0.00,0,Wunderground v.1.15,2013-12-09 09:00:00,
2013-12-09 04:06:00,32.5,28.5,30.29,NE,46,3.0,9.0,85,0.00,,,0.00,0,Wunderground v.1.15,2013-12-09 09:06:00,
2013-12-09 04:09:00,32.5,28.5,30.29,ENE,59,3.0,9.0,85,0.00,,,0.00,0,Wunderground v.1.15,2013-12-09 09:09:00,
2013-12-09 04:15:00,32.6,28.6,30.28,NE,53,4.0,9.0,85,0.00,,,0.00,0,Wunderground v.1.15,2013-12-09 09:15:00,
2013-12-09 04:20:00,32.7,28.7,30.28,ENE,65,3.0,9.0,85,0.00,,,0.00,0,Wunderground v.1.15,2013-12-09 09:20:00,
2013-12-09 04:26:00,32.8,28.8,30.27,NE,51,2.0,9.0,85,0.00,,,0.00,0,Wunderground v.1.15,2013-12-09 09:26:00,
2013-12-09 04:32:00,32.9,28.9,30.27,ENE,61,2.0,9.0,85,0.00,,,0.00,0,Wunderground v.1.15,2013-12-09 09:32:00,
2013-12-09 04:37:00,32.9,28.9,30.27,NNE,32,3.0,9.0,85,0.00,,,0.00,0,Wunderground v.1.15,2013-12-09 09:37:00,
2013-12-09 04:43:00,33.1,29.1,30.27,NNE,28,3.0,9.0,85,0.00,,,0.01,0,Wunderground v.1.15,2013-12-09 09:43:00,
2013-12-09 04:49:00,33.1,29.1,30.27,NNE,28,1.0,9.0,85,0.00,,,0.01,0,Wunderground v.1.15,2013-12-09 09:49:00,
2013-12-09 04:54:00,33.2,29.2,30.27,NNE,27,1.0,9.0,85,0.00,,,0.01,0,Wunderground v.1.15,2013-12-09 09:54:00,
2013-12-09 05:00:00,33.1,29.1,30.27,NNE,28,1.0,9.0,85,0.00,,,0.02,0,Wunderground v.1.15,2013-12-09 10:00:00,
2013-12-09 05:06:00,33.1,29.1,30.26,NE,45,1.0,9.0,85,0.00,,,0.02,0,Wunderground v.1.15,2013-12-09 10:06:00,
2013-12-09 05:11:00,33.2,29.2,30.25,ENE,67,3.0,9.0,85,0.06,,,0.03,0,Wunderground v.1.15,2013-12-09 10:11:00,
2013-12-09 05:17:00,33.3,29.3,30.25,ENE,57,4.0,9.0,85,0.06,,,0.03,0,Wunderground v.1.15,2013-12-09 10:17:00,
2013-12-09 05:23:00,33.3,29.3,30.25,NE,47,3.0,9.0,85,0.04,,,0.04,0,Wunderground v.1.15,2013-12-09 10:23:00,
2013-12-09 05:28:00,33.4,29.4,30.26,NNE,33,2.0,9.0,85,0.04,,,0.04,0,Wunderground v.1.15,2013-12-09 10:28:00,
2013-12-09 05:34:00,33.4,29.4,30.26,NNE,33,1.0,9.0,85,0.04,,,0.04,0,Wunderground v.1.15,2013-12-09 10:34:00,
2013-12-09 05:40:00,33.4,29.4,30.26,NE,55,0.0,9.0,85,0.00,,,0.04,0,Wunderground v.1.15,2013-12-09 10:40:00,
2013-12-09 05:46:00,33.5,29.5,30.26,NE,35,1.0,9.0,85,0.00,,,0.05,0,Wunderground v.1.15,2013-12-09 10:46:00,
2013-12-09 05:52:00,33.5,29.5,30.25,NE,37,0.0,9.0,85,0.00,,,0.05,0,Wunderground v.1.15,2013-12-09 10:52:00,
2013-12-09 05:58:00,33.5,29.5,30.25,ENE,57,1.0,9.0,85,0.00,,,0.05,0,Wunderground v.1.15,2013-12-09 10:58:00,
2013-12-09 06:03:00,33.5,29.5,30.25,ENE,61,3.0,9.0,85,0.00,,,0.05,0,Wunderground v.1.15,2013-12-09 11:03:00,
2013-12-09 06:07:00,33.5,29.5,30.25,NE,55,2.0,9.0,85,0.00,,,0.05,0,Wunderground v.1.15,2013-12-09 11:07:00,
2013-12-09 06:12:00,33.6,29.6,30.26,NE,55,1.0,9.0,85,0.00,,,0.05,0,Wunderground v.1.15,2013-12-09 11:12:00,
2013-12-09 06:18:00,33.6,29.6,30.26,NE,55,0.0,9.0,85,0.00,,,0.05,0,Wunderground v.1.15,2013-12-09 11:18:00,
2013-12-09 06:24:00,33.6,29.6,30.26,NE,54,0.0,9.0,85,0.00,,,0.05,0,Wunderground v.1.15,2013-12-09 11:24:00,
2013-12-09 06:29:00,33.6,29.6,30.25,ENE,67,1.0,9.0,85,0.00,,,0.06,0,Wunderground v.1.15,2013-12-09 11:29:00,
2013-12-09 06:35:00,33.6,29.6,30.25,ENE,59,1.0,9.0,85,0.00,,,0.06,0,Wunderground v.1.15,2013-12-09 11:35:00,
2013-12-09 06:40:00,33.6,29.6,30.25,East,79,1.0,9.0,85,0.00,,,0.06,0,Wunderground v.1.15,2013-12-09 11:40:00,
2013-12-09 06:46:00,33.6,29.6,30.24,ENE,57,1.0,9.0,85,0.04,,,0.07,0,Wunderground v.1.15,2013-12-09 11:46:00,
2013-12-09 06:52:00,33.7,29.7,30.24,NNW,333,3.0,9.0,85,0.04,,,0.07,0,Wunderground v.1.15,2013-12-09 11:52:00,
2013-12-09 06:57:00,33.7,29.7,30.25,East,94,2.0,9.0,85,0.04,,,0.07,0,Wunderground v.1.15,2013-12-09 11:57:00,
2013-12-09 07:03:00,33.7,29.7,30.23,ENE,59,2.0,9.0,85,0.00,,,0.07,0,Wunderground v.1.15,2013-12-09 12:03:00,
2013-12-09 07:09:00,33.7,29.7,30.23,ENE,59,2.0,9.0,85,0.00,,,0.07,0,Wunderground v.1.15,2013-12-09 12:09:00,
2013-12-09 07:14:00,33.7,29.7,30.22,ENE,65,2.0,9.0,85,0.00,,,0.07,0,Wunderground v.1.15,2013-12-09 12:14:00,
2013-12-09 07:20:00,33.6,29.6,30.22,ENE,60,2.0,9.0,85,0.00,,,0.07,0,Wunderground v.1.15,2013-12-09 12:20:00,
2013-12-09 07:26:00,33.7,29.7,30.22,ENE,60,2.0,9.0,85,0.00,,,0.07,0,Wunderground v.1.15,2013-12-09 12:26:00,
2013-12-09 07:31:00,33.7,29.7,30.23,ENE,76,3.0,9.0,85,0.00,,,0.07,0,Wunderground v.1.15,2013-12-09 12:31:00,
2013-12-09 07:37:00,33.7,29.7,30.22,ENE,62,3.0,9.0,85,0.00,,,0.08,0,Wunderground v.1.15,2013-12-09 12:37:00,
2013-12-09 07:43:00,33.7,29.7,30.22,ENE,63,3.0,9.0,85,0.00,,,0.08,0,Wunderground v.1.15,2013-12-09 12:43:00,
2013-12-09 07:48:00,33.7,29.7,30.21,NE,45,2.0,9.0,85,0.06,,,0.09,0,Wunderground v.1.15,2013-12-09 12:48:00,
2013-12-09 07:54:00,33.7,29.7,30.21,NE,47,3.0,9.0,85,0.06,,,0.09,0,Wunderground v.1.15,2013-12-09 12:54:00,
2013-12-09 07:59:00,33.7,29.7,30.22,ENE,61,2.0,9.0,85,0.08,,,0.10,0,Wunderground v.1.15,2013-12-09 12:59:00,
2013-12-09 08:05:00,33.8,29.8,30.20,ENE,60,2.0,9.0,85,0.06,,,0.10,0,Wunderground v.1.15,2013-12-09 13:05:00,
2013-12-09 08:10:00,33.8,29.8,30.20,ENE,75,3.0,3.0,85,0.04,,,0.10,5,Wunderground v.1.15,2013-12-09 13:10:00,
2013-12-09 08:16:00,33.9,29.9,30.18,NE,49,2.0,9.0,85,0.00,,,0.10,9,Wunderground v.1.15,2013-12-09 13:16:00,
2013-12-09 08:22:00,33.8,29.8,30.18,ENE,65,2.0,9.0,85,0.00,,,0.10,7,Wunderground v.1.15,2013-12-09 13:22:00,
2013-12-09 08:27:00,33.8,29.8,30.19,East,101,2.0,9.0,85,0.00,,,0.10,5,Wunderground v.1.15,2013-12-09 13:27:00,
2013-12-09 08:33:00,33.8,29.8,30.19,ENE,65,1.0,9.0,85,0.00,,,0.10,5,Wunderground v.1.15,2013-12-09 13:33:00,
2013-12-09 08:38:00,33.9,29.9,30.19,ENE,65,2.0,9.0,85,0.00,,,0.10,5,Wunderground v.1.15,2013-12-09 13:38:00,
2013-12-09 08:44:00,34.0,30.0,30.19,ENE,63,3.0,9.0,85,0.00,,,0.10,0,Wunderground v.1.15,2013-12-09 13:44:00,
2013-12-09 08:50:00,34.0,30.0,30.18,ENE,57,3.0,3.0,85,0.00,,,0.10,0,Wunderground v.1.15,2013-12-09 13:50:00,
2013-12-09 08:55:00,34.1,30.1,30.19,ENE,69,1.0,9.0,85,0.00,,,0.10,0,Wunderground v.1.15,2013-12-09 13:55:00,
2013-12-09 09:01:00,34.1,30.1,30.17,NE,53,1.0,9.0,85,0.00,,,0.10,0,Wunderground v.1.15,2013-12-09 14:01:00,
2013-12-09 09:06:00,34.1,30.1,30.17,NE,53,1.0,9.0,85,0.00,,,0.10,5,Wunderground v.1.15,2013-12-09 14:06:00,
2013-12-09 09:12:00,34.1,30.1,30.17,East,96,1.0,9.0,85,0.00,,,0.10,7,Wunderground v.1.15,2013-12-09 14:12:00,
2013-12-09 09:18:00,34.2,30.2,30.17,East,94,1.0,9.0,85,0.00,,,0.10,12,Wunderground v.1.15,2013-12-09 14:18:00,
2013-12-09 09:23:00,34.2,30.2,30.17,East,91,0.0,9.0,85,0.00,,,0.10,12,Wunderground v.1.15,2013-12-09 14:23:00,
2013-12-09 09:29:00,34.2,30.2,30.18,ENE,59,1.0,9.0,85,0.00,,,0.11,12,Wunderground v.1.15,2013-12-09 14:29:00,
2013-12-09 09:35:00,34.3,30.3,30.18,ENE,69,1.0,9.0,85,0.00,,,0.11,25,Wunderground v.1.15,2013-12-09 14:35:00,
2013-12-09 09:40:00,34.4,30.4,30.18,ENE,61,1.0,1.0,85,0.00,,,0.11,14,Wunderground v.1.15,2013-12-09 14:40:00,
2013-12-09 09:46:00,34.4,30.4,30.18,ENE,61,0.0,9.0,85,0.00,,,0.11,14,Wunderground v.1.15,2013-12-09 14:46:00,
2013-12-09 09:51:00,34.3,30.3,30.18,ENE,61,0.0,9.0,85,0.00,,,0.11,21,Wunderground v.1.15,2013-12-09 14:51:00,
2013-12-09 09:57:00,34.3,30.3,30.18,ENE,61,0.0,9.0,85,0.00,,,0.11,32,Wunderground v.1.15,2013-12-09 14:57:00,
2013-12-09 10:03:00,34.4,30.4,30.18,NE,41,0.0,9.0,85,0.00,,,0.11,19,Wunderground v.1.15,2013-12-09 15:03:00,
2013-12-09 10:08:00,34.2,30.2,30.18,NNW,331,1.0,9.0,85,0.00,,,0.12,21,Wunderground v.1.15,2013-12-09 15:08:00,
2013-12-09 10:14:00,34.1,30.1,30.19,NNW,327,1.0,9.0,85,0.00,,,0.12,21,Wunderground v.1.15,2013-12-09 15:14:00,
2013-12-09 10:20:00,34.1,30.1,30.18,NNW,327,0.0,9.0,85,0.00,,,0.12,39,Wunderground v.1.15,2013-12-09 15:20:00,
2013-12-09 10:25:00,34.0,30.0,30.18,NNW,327,0.0,9.0,85,0.04,,,0.13,26,Wunderground v.1.15,2013-12-09 15:25:00,
2013-12-09 10:31:00,34.0,30.0,30.17,NNW,327,0.0,9.0,85,0.04,,,0.13,35,Wunderground v.1.15,2013-12-09 15:31:00,
2013-12-09 10:37:00,34.0,30.0,30.17,NNW,327,0.0,9.0,85,0.04,,,0.13,28,Wunderground v.1.15,2013-12-09 15:37:00,
2013-12-09 10:42:00,34.1,30.1,30.16,NNW,327,0.0,9.0,85,0.00,,,0.13,46,Wunderground v.1.15,2013-12-09 15:42:00,
2013-12-09 10:48:00,34.0,30.0,30.16,NNW,327,0.0,9.0,85,0.00,,,0.14,42,Wunderground v.1.15,2013-12-09 15:48:00,
2013-12-09 10:53:00,34.1,30.1,30.15,NNW,327,0.0,9.0,85,0.00,,,0.14,53,Wunderground v.1.15,2013-12-09 15:53:00,
2013-12-09 10:59:00,34.1,30.1,30.14,NNW,327,0.0,9.0,85,0.04,,,0.15,58,Wunderground v.1.15,2013-12-09 15:59:00,
2013-12-09 11:05:00,34.0,30.0,30.14,NNW,327,0.0,9.0,85,0.04,,,0.15,65,Wunderground v.1.15,2013-12-09 16:05:00,
2013-12-09 11:11:00,34.1,30.1,30.14,NNW,327,0.0,9.0,85,0.04,,,0.15,84,Wunderground v.1.15,2013-12-09 16:11:00,
2013-12-09 11:17:00,34.1,30.1,30.14,NNW,327,0.0,9.0,85,0.04,,,0.16,60,Wunderground v.1.15,2013-12-09 16:17:00,
2013-12-09 11:22:00,34.1,30.1,30.13,NNW,327,1.0,9.0,85,0.04,,,0.16,60,Wunderground v.1.15,2013-12-09 16:22:00,
2013-12-09 11:28:00,34.2,30.2,30.12,NNW,327,0.0,9.0,85,0.04,,,0.17,76,Wunderground v.1.15,2013-12-09 16:28:00,
2013-12-09 11:33:00,34.3,30.3,30.12,NNW,327,0.0,9.0,85,0.04,,,0.17,77,Wunderground v.1.15,2013-12-09 16:33:00,
2013-12-09 11:39:00,34.3,30.3,30.11,NNW,327,0.0,9.0,85,0.04,,,0.17,70,Wunderground v.1.15,2013-12-09 16:39:00,
2013-12-09 11:45:00,34.4,30.4,30.11,NNW,327,0.0,9.0,85,0.04,,,0.18,63,Wunderground v.1.15,2013-12-09 16:45:00,
2013-12-09 11:50:00,34.4,30.4,30.12,NNW,327,0.0,9.0,85,0.04,,,0.18,63,Wunderground v.1.15,2013-12-09 16:50:00,
2013-12-09 11:56:00,34.4,30.4,30.12,NNW,327,1.0,9.0,85,0.04,,,0.18,62,Wunderground v.1.15,2013-12-09 16:56:00,
2013-12-09 12:01:00,34.4,30.4,30.12,NNW,327,1.0,9.0,85,0.00,,,0.19,47,Wunderground v.1.15,2013-12-09 17:01:00,
2013-12-09 12:07:00,34.6,30.6,30.10,NNW,327,0.0,9.0,85,0.00,,,0.19,76,Wunderground v.1.15,2013-12-09 17:07:00,
2013-12-09 12:13:00,34.7,30.9,30.10,NNW,327,0.0,9.0,86,0.00,,,0.19,81,Wunderground v.1.15,2013-12-09 17:13:00,
2013-12-09 12:18:00,34.8,31.0,30.09,NNW,327,0.0,9.0,86,0.00,,,0.20,84,Wunderground v.1.15,2013-12-09 17:18:00,
2013-12-09 12:24:00,35.0,31.2,30.10,NNW,327,0.0,9.0,86,0.00,,,0.20,128,Wunderground v.1.15,2013-12-09 17:24:00,
2013-12-09 12:30:00,35.1,31.3,30.09,NNW,327,0.0,9.0,86,0.05,,,0.20,88,Wunderground v.1.15,2013-12-09 17:30:00,
2013-12-09 12:35:00,35.2,31.4,30.09,NNW,327,0.0,9.0,86,0.05,,,0.21,114,Wunderground v.1.15,2013-12-09 17:35:00,
2013-12-09 12:41:00,35.2,31.4,30.09,NNW,327,0.0,9.0,86,0.05,,,0.21,91,Wunderground v.1.15,2013-12-09 17:41:00,
2013-12-09 12:46:00,35.2,31.4,30.09,WNW,300,1.0,9.0,86,0.04,,,0.21,95,Wunderground v.1.15,2013-12-09 17:46:00,
2013-12-09 12:52:00,35.2,31.4,30.09,NW,306,2.0,9.0,86,0.00,,,0.22,83,Wunderground v.1.15,2013-12-09 17:52:00,
2013-12-09 12:58:00,35.3,31.5,30.08,NW,306,1.0,9.0,86,0.00,,,0.22,118,Wunderground v.1.15,2013-12-09 17:58:00,
2013-12-09 13:03:00,35.5,31.7,30.08,NW,306,0.0,9.0,86,0.00,,,0.22,93,Wunderground v.1.15,2013-12-09 18:03:00,
2013-12-09 13:09:00,35.5,31.7,30.08,NW,304,1.0,9.0,86,0.00,,,0.23,90,Wunderground v.1.15,2013-12-09 18:09:00,
2013-12-09 13:15:00,35.3,31.5,30.09,WNW,285,3.0,9.0,86,0.00,,,0.23,69,Wunderground v.1.15,2013-12-09 18:15:00,
2013-12-09 13:21:00,35.4,31.6,30.08,West,273,2.0,9.0,86,0.00,,,0.23,81,Wunderground v.1.15,2013-12-09 18:21:00,
2013-12-09 13:27:00,35.5,31.7,30.08,West,273,1.0,9.0,86,0.00,,,0.23,79,Wunderground v.1.15,2013-12-09 18:27:00,
2013-12-09 13:32:00,35.5,31.7,30.09,WNW,282,1.0,9.0,86,0.00,,,0.24,76,Wunderground v.1.15,2013-12-09 18:32:00,
2013-12-09 13:38:00,35.6,31.8,30.08,West,263,2.0,9.0,86,0.00,,,0.24,81,Wunderground v.1.15,2013-12-09 18:38:00,
2013-12-09 13:43:00,35.6,31.8,30.08,WSW,249,1.0,9.0,86,0.00,,,0.24,62,Wunderground v.1.15,2013-12-09 18:43:00,
2013-12-09 13:49:00,35.6,31.8,30.07,WSW,249,1.0,9.0,86,0.00,,,0.25,98,Wunderground v.1.15,2013-12-09 18:49:00,
2013-12-09 13:55:00,35.8,32.0,30.08,WSW,249,0.0,9.0,86,0.00,,,0.25,98,Wunderground v.1.15,2013-12-09 18:55:00,
2013-12-09 14:00:00,35.9,32.1,30.08,WSW,249,1.0,9.0,86,0.00,,,0.25,100,Wunderground v.1.15,2013-12-09 19:00:00,
2013-12-09 14:06:00,35.9,32.1,30.07,WSW,249,1.0,9.0,86,0.00,,,0.25,54,Wunderground v.1.15,2013-12-09 19:06:00,
2013-12-09 14:12:00,36.0,32.2,30.08,WSW,249,0.0,9.0,86,0.00,,,0.26,49,Wunderground v.1.15,2013-12-09 19:12:00,
2013-12-09 14:17:00,36.1,32.3,30.08,WSW,249,0.0,9.0,86,0.00,,,0.26,69,Wunderground v.1.15,2013-12-09 19:17:00,
2013-12-09 14:22:00,36.0,32.2,30.06,WSW,249,1.0,9.0,86,0.00,,,0.26,100,Wunderground v.1.15,2013-12-09 19:22:00,
2013-12-09 14:28:00,36.0,32.2,30.06,WSW,251,1.0,9.0,86,0.00,,,0.26,111,Wunderground v.1.15,2013-12-09 19:28:00,
2013-12-09 14:34:00,36.1,32.3,30.07,WSW,251,1.0,9.0,86,0.00,,,0.26,102,Wunderground v.1.15,2013-12-09 19:34:00,
2013-12-09 14:39:00,36.2,32.4,30.07,WNW,286,2.0,9.0,86,0.00,,,0.27,98,Wunderground v.1.15,2013-12-09 19:39:00,
2013-12-09 14:45:00,36.2,32.4,30.07,West,271,3.0,9.0,86,0.00,,,0.27,74,Wunderground v.1.15,2013-12-09 19:45:00,
2013-12-09 14:51:00,36.2,32.4,30.08,WNW,286,3.0,9.0,86,0.00,,,0.27,46,Wunderground v.1.15,2013-12-09 19:51:00,
2013-12-09 14:56:00,36.2,32.4,30.08,WNW,288,3.0,9.0,86,0.00,,,0.27,56,Wunderground v.1.15,2013-12-09 19:56:00,
2013-12-09 15:02:00,36.2,32.4,30.08,WNW,286,3.0,9.0,86,0.00,,,0.27,81,Wunderground v.1.15,2013-12-09 20:02:00,
2013-12-09 15:08:00,36.3,32.5,30.08,West,272,3.0,9.0,86,0.00,,,0.28,51,Wunderground v.1.15,2013-12-09 20:08:00,
2013-12-09 15:13:00,36.4,32.6,30.08,SW,234,2.0,9.0,86,0.00,,,0.28,51,Wunderground v.1.15,2013-12-09 20:13:00,
2013-12-09 15:19:00,36.4,32.6,30.08,WSW,250,2.0,9.0,86,0.00,,,0.28,32,Wunderground v.1.15,2013-12-09 20:19:00,
2013-12-09 15:25:00,36.3,32.5,30.08,WSW,248,2.0,9.0,86,0.00,,,0.28,37,Wunderground v.1.15,2013-12-09 20:25:00,
2013-12-09 15:30:00,36.3,32.5,30.09,WSW,248,2.0,2.0,86,0.00,,,0.28,32,Wunderground v.1.15,2013-12-09 20:30:00,
2013-12-09 15:36:00,36.2,32.4,30.08,West,261,1.0,9.0,86,0.00,,,0.28,30,Wunderground v.1.15,2013-12-09 20:36:00,
2013-12-09 15:41:00,36.2,32.4,30.08,WSW,242,2.0,9.0,86,0.00,,,0.28,25,Wunderground v.1.15,2013-12-09 20:41:00,
2013-12-09 15:47:00,36.1,32.3,30.08,West,265,2.0,9.0,86,0.00,,,0.29,16,Wunderground v.1.15,2013-12-09 20:47:00,
2013-12-09 15:53:00,36.1,32.3,30.08,WNW,292,2.0,9.0,86,0.00,,,0.29,11,Wunderground v.1.15,2013-12-09 20:53:00,
2013-12-09 15:58:00,36.1,32.3,30.08,WSW,255,3.0,9.0,86,0.00,,,0.29,12,Wunderground v.1.15,2013-12-09 20:58:00,
2013-12-09 16:04:00,36.1,32.3,30.08,West,262,3.0,9.0,86,0.00,,,0.29,12,Wunderground v.1.15,2013-12-09 21:04:00,
2013-12-09 16:10:00,36.0,32.2,30.08,WSW,254,2.0,9.0,86,0.00,,,0.29,9,Wunderground v.1.15,2013-12-09 21:10:00,
2013-12-09 16:15:00,36.0,32.2,30.08,West,261,2.0,9.0,86,0.00,,,0.29,7,Wunderground v.1.15,2013-12-09 21:15:00,
2013-12-09 16:21:00,36.0,32.2,30.08,West,281,2.0,9.0,86,0.00,,,0.29,0,Wunderground v.1.15,2013-12-09 21:21:00,
2013-12-09 16:26:00,35.9,32.1,30.08,West,270,2.0,9.0,86,0.00,,,0.29,0,Wunderground v.1.15,2013-12-09 21:26:00,
2013-12-09 16:32:00,35.9,32.1,30.08,WSW,252,2.0,9.0,86,0.00,,,0.29,0,Wunderground v.1.15,2013-12-09 21:32:00,
2013-12-09 16:38:00,35.9,32.1,30.08,West,267,2.0,9.0,86,0.00,,,0.29,0,Wunderground v.1.15,2013-12-09 21:38:00,
2013-12-09 16:43:00,35.9,32.1,30.08,WNW,287,1.0,9.0,86,0.00,,,0.29,0,Wunderground v.1.15,2013-12-09 21:43:00,
2013-12-09 16:49:00,35.9,32.1,30.08,WSW,243,2.0,9.0,86,0.00,,,0.29,0,Wunderground v.1.15,2013-12-09 21:49:00,
2013-12-09 16:55:00,35.9,32.1,30.08,WSW,257,2.0,9.0,86,0.00,,,0.29,0,Wunderground v.1.15,2013-12-09 21:55:00,
2013-12-09 17:00:00,35.9,32.1,30.08,WSW,253,1.0,9.0,86,0.00,,,0.29,0,Wunderground v.1.15,2013-12-09 22:00:00,
2013-12-09 17:06:00,35.9,32.1,30.08,WSW,253,1.0,9.0,86,0.00,,,0.29,0,Wunderground v.1.15,2013-12-09 22:06:00,
2013-12-09 17:11:00,35.9,32.1,30.08,WSW,250,1.0,9.0,86,0.00,,,0.30,0,Wunderground v.1.15,2013-12-09 22:11:00,
2013-12-09 17:17:00,35.9,32.1,30.08,West,259,2.0,9.0,86,0.00,,,0.30,0,Wunderground v.1.15,2013-12-09 22:17:00,
2013-12-09 17:23:00,35.9,32.1,30.08,West,259,0.0,9.0,86,0.00,,,0.30,0,Wunderground v.1.15,2013-12-09 22:23:00,
2013-12-09 17:28:00,35.9,32.1,30.08,WNW,302,1.0,9.0,86,0.00,,,0.30,0,Wunderground v.1.15,2013-12-09 22:28:00,
2013-12-09 17:34:00,36.0,32.2,30.09,West,271,2.0,9.0,86,0.00,,,0.30,0,Wunderground v.1.15,2013-12-09 22:34:00,
2013-12-09 17:39:00,36.1,32.3,30.09,NW,306,2.0,9.0,86,0.00,,,0.30,0,Wunderground v.1.15,2013-12-09 22:39:00,
2013-12-09 17:45:00,36.1,32.3,30.09,WNW,295,3.0,9.0,86,0.00,,,0.30,0,Wunderground v.1.15,2013-12-09 22:45:00,
2013-12-09 17:51:00,36.2,32.4,30.09,NW,304,4.0,9.0,86,0.00,,,0.30,0,Wunderground v.1.15,2013-12-09 22:51:00,
2013-12-09 17:56:00,36.2,32.4,30.08,WNW,293,4.0,9.0,86,0.00,,,0.30,0,Wunderground v.1.15,2013-12-09 22:56:00,
2013-12-09 18:02:00,36.2,32.4,30.08,West,277,4.0,9.0,86,0.00,,,0.30,0,Wunderground v.1.15,2013-12-09 23:02:00,
2013-12-09 18:07:00,36.1,32.3,30.08,NW,304,4.0,9.0,86,0.00,,,0.30,0,Wunderground v.1.15,2013-12-09 23:07:00,
2013-12-09 18:13:00,36.2,32.4,30.09,West,269,4.0,9.0,86,0.00,,,0.30,0,Wunderground v.1.15,2013-12-09 23:13:00,
2013-12-09 18:19:00,36.1,32.3,30.09,West,265,4.0,9.0,86,0.00,,,0.30,0,Wunderground v.1.15,2013-12-09 23:19:00,
2013-12-09 18:24:00,36.2,32.4,30.09,West,259,4.0,9.0,86,0.00,,,0.30,0,Wunderground v.1.15,2013-12-09 23:24:00,
2013-12-09 18:30:00,36.2,32.1,30.09,WNW,302,4.0,9.0,85,0.00,,,0.30,0,Wunderground v.1.15,2013-12-09 23:30:00,
2013-12-09 18:36:00,36.4,32.3,30.10,WSW,257,4.0,9.0,85,0.00,,,0.30,0,Wunderground v.1.15,2013-12-09 23:36:00,
2013-12-09 18:41:00,36.5,32.4,30.10,West,276,5.0,9.0,85,0.00,,,0.30,0,Wunderground v.1.15,2013-12-09 23:41:00,
2013-12-09 18:47:00,36.5,32.4,30.10,West,259,5.0,9.0,85,0.00,,,0.30,0,Wunderground v.1.15,2013-12-09 23:47:00,
2013-12-09 18:53:00,36.5,32.4,30.10,WNW,282,4.0,9.0,85,0.00,,,0.30,0,Wunderground v.1.15,2013-12-09 23:53:00,
2013-12-09 18:58:00,36.5,32.4,30.10,WNW,287,4.0,9.0,85,0.00,,,0.30,0,Wunderground v.1.15,2013-12-09 23:58:00,
2013-12-09 19:04:00,36.5,32.4,30.10,WNW,285,4.0,9.0,85,0.00,,,0.30,0,Wunderground v.1.15,2013-12-10 00:04:00,
2013-12-09 19:10:00,36.4,32.3,30.11,West,264,4.0,4.0,85,0.00,,,0.31,0,Wunderground v.1.15,2013-12-10 00:10:00,
2013-12-09 19:16:00,36.4,32.3,30.11,WSW,254,5.0,9.0,85,0.00,,,0.31,0,Wunderground v.1.15,2013-12-10 00:16:00,
2013-12-09 19:21:00,36.4,32.3,30.11,West,279,6.0,6.0,85,0.00,,,0.31,0,Wunderground v.1.15,2013-12-10 00:21:00,
2013-12-09 19:27:00,36.3,32.2,30.11,West,275,5.0,9.0,85,0.00,,,0.31,0,Wunderground v.1.15,2013-12-10 00:27:00,
2013-12-09 19:32:00,36.3,32.2,30.11,WNW,298,4.0,9.0,85,0.00,,,0.31,0,Wunderground v.1.15,2013-12-10 00:32:00,
2013-12-09 19:38:00,36.2,32.1,30.11,WSW,239,4.0,9.0,85,0.00,,,0.31,0,Wunderground v.1.15,2013-12-10 00:38:00,
2013-12-09 19:44:00,36.1,32.0,30.12,West,269,3.0,9.0,85,0.00,,,0.31,0,Wunderground v.1.15,2013-12-10 00:44:00,
2013-12-09 19:50:00,36.2,32.1,30.11,WNW,288,4.0,4.0,85,0.00,,,0.31,0,Wunderground v.1.15,2013-12-10 00:50:00,
2013-12-09 19:55:00,36.2,32.1,30.12,West,263,4.0,9.0,85,0.00,,,0.31,0,Wunderground v.1.15,2013-12-10 00:55:00,
2013-12-09 20:01:00,36.1,32.0,30.11,WNW,293,3.0,9.0,85,0.00,,,0.31,0,Wunderground v.1.15,2013-12-10 01:01:00,
2013-12-09 20:06:00,36.1,32.0,30.12,WNW,301,3.0,9.0,85,0.00,,,0.31,0,Wunderground v.1.15,2013-12-10 01:06:00,
2013-12-09 20:12:00,36.0,31.9,30.12,WNW,301,3.0,9.0,85,0.00,,,0.31,0,Wunderground v.1.15,2013-12-10 01:12:00,
2013-12-09 20:18:00,35.8,31.7,30.12,WNW,292,3.0,9.0,85,0.00,,,0.31,0,Wunderground v.1.15,2013-12-10 01:18:00,
2013-12-09 20:23:00,35.8,31.7,30.11,NW,316,3.0,9.0,85,0.00,,,0.31,0,Wunderground v.1.15,2013-12-10 01:23:00,
2013-12-09 20:29:00,35.6,31.5,30.11,WNW,295,3.0,9.0,85,0.00,,,0.31,0,Wunderground v.1.15,2013-12-10 01:29:00,
2013-12-09 20:35:00,35.6,31.5,30.11,West,278,3.0,9.0,85,0.00,,,0.31,0,Wunderground v.1.15,2013-12-10 01:35:00,
2013-12-09 20:40:00,35.5,31.4,30.11,West,279,2.0,9.0,85,0.00,,,0.31,0,Wunderground v.1.15,2013-12-10 01:40:00,
2013-12-09 20:46:00,35.4,31.3,30.12,West,272,1.0,9.0,85,0.00,,,0.31,0,Wunderground v.1.15,2013-12-10 01:46:00,
2013-12-09 20:51:00,35.3,31.2,30.12,WNW,284,1.0,9.0,85,0.00,,,0.31,0,Wunderground v.1.15,2013-12-10 01:51:00,
2013-12-09 20:57:00,35.5,31.4,30.11,WNW,297,2.0,9.0,85,0.00,,,0.31,0,Wunderground v.1.15,2013-12-10 01:57:00,
2013-12-09 21:03:00,35.5,31.4,30.11,WNW,282,3.0,9.0,85,0.00,,,0.31,0,Wunderground v.1.15,2013-12-10 02:03:00,
2013-12-09 21:08:00,35.5,31.4,30.11,WNW,294,3.0,9.0,85,0.00,,,0.31,0,Wunderground v.1.15,2013-12-10 02:08:00,
2013-12-09 21:14:00,35.5,31.4,30.11,WNW,291,2.0,9.0,85,0.00,,,0.31,0,Wunderground v.1.15,2013-12-10 02:14:00,
2013-12-09 21:20:00,35.5,31.4,30.11,NW,317,2.0,9.0,85,0.00,,,0.31,0,Wunderground v.1.15,2013-12-10 02:20:00,
2013-12-09 21:25:00,35.5,31.4,30.11,WNW,291,2.0,9.0,85,0.00,,,0.31,0,Wunderground v.1.15,2013-12-10 02:25:00,
2013-12-09 21:31:00,35.4,31.3,30.11,WNW,295,1.0,9.0,85,0.00,,,0.31,0,Wunderground v.1.15,2013-12-10 02:31:00,
2013-12-09 21:37:00,35.3,31.2,30.11,WNW,295,0.0,9.0,85,0.00,,,0.31,0,Wunderground v.1.15,2013-12-10 02:37:00,
2013-12-09 21:42:00,35.1,31.0,30.11,WNW,295,0.0,9.0,85,0.00,,,0.31,0,Wunderground v.1.15,2013-12-10 02:42:00,
2013-12-09 21:48:00,34.9,30.8,30.11,WNW,295,0.0,9.0,85,0.00,,,0.31,0,Wunderground v.1.15,2013-12-10 02:48:00,
2013-12-09 21:54:00,34.9,30.8,30.11,WNW,295,0.0,9.0,85,0.00,,,0.31,0,Wunderground v.1.15,2013-12-10 02:54:00,
2013-12-09 21:59:00,34.8,30.8,30.11,WNW,295,1.0,9.0,85,0.00,,,0.31,0,Wunderground v.1.15,2013-12-10 02:59:00,
2013-12-09 22:04:00,35.0,30.9,30.11,WNW,302,2.0,9.0,85,0.00,,,0.31,0,Wunderground v.1.15,2013-12-10 03:04:00,
2013-12-09 22:10:00,35.2,31.1,30.11,WNW,288,2.0,2.0,85,0.00,,,0.31,0,Wunderground v.1.15,2013-12-10 03:10:00,
2013-12-09 22:15:00,35.2,31.1,30.11,NW,306,2.0,9.0,85,0.00,,,0.31,0,Wunderground v.1.15,2013-12-10 03:15:00,
2013-12-09 22:21:00,35.3,31.2,30.11,NW,307,2.0,9.0,85,0.00,,,0.31,0,Wunderground v.1.15,2013-12-10 03:21:00,
2013-12-09 22:27:00,35.4,31.3,30.12,West,277,3.0,9.0,85,0.00,,,0.31,0,Wunderground v.1.15,2013-12-10 03:27:00,
2013-12-09 22:32:00,35.5,31.4,30.11,NW,311,3.0,9.0,85,0.00,,,0.31,0,Wunderground v.1.15,2013-12-10 03:32:00,
2013-12-09 22:38:00,35.5,31.4,30.11,WNW,283,3.0,9.0,85,0.00,,,0.31,0,Wunderground v.1.15,2013-12-10 03:38:00,
2013-12-09 22:44:00,35.4,31.0,30.11,West,259,3.0,9.0,84,0.00,,,0.31,0,Wunderground v.1.15,2013-12-10 03:44:00,
2013-12-09 22:49:00,35.5,31.4,30.11,NW,309,2.0,9.0,85,0.00,,,0.31,0,Wunderground v.1.15,2013-12-10 03:49:00,
2013-12-09 22:55:00,35.4,31.0,30.10,WNW,302,3.0,9.0,84,0.00,,,0.31,0,Wunderground v.1.15,2013-12-10 03:55:00,
2013-12-09 23:01:00,35.4,31.0,30.10,NNW,328,3.0,9.0,84,0.00,,,0.31,0,Wunderground v.1.15,2013-12-10 04:01:00,
2013-12-09 23:06:00,35.2,30.9,30.11,WNW,283,3.0,9.0,84,0.00,,,0.31,0,Wunderground v.1.15,2013-12-10 04:06:00,
2013-12-09 23:12:00,35.1,30.8,30.11,WNW,291,2.0,9.0,84,0.00,,,0.31,0,Wunderground v.1.15,2013-12-10 04:12:00,
2013-12-09 23:18:00,35.0,30.9,30.11,WNW,300,2.0,9.0,85,0.00,,,0.31,0,Wunderground v.1.15,2013-12-10 04:18:00,
2013-12-09 23:23:00,35.0,30.7,30.10,WNW,294,2.0,9.0,84,0.00,,,0.31,0,Wunderground v.1.15,2013-12-10 04:23:00,
2013-12-09 23:29:00,35.0,30.7,30.10,WNW,285,3.0,9.0,84,0.00,,,0.31,0,Wunderground v.1.15,2013-12-10 04:29:00,
2013-12-09 23:35:00,35.1,30.8,30.10,NW,315,4.0,9.0,84,0.00,,,0.31,0,Wunderground v.1.15,2013-12-10 04:35:00,
2013-12-09 23:41:00,35.1,30.8,30.10,WNW,300,4.0,9.0,84,0.00,,,0.31,0,Wunderground v.1.15,2013-12-10 04:41:00,
2013-12-09 23:46:00,35.1,30.8,30.09,WNW,297,4.0,9.0,84,0.00,,,0.31,0,Wunderground v.1.15,2013-12-10 04:46:00,
2013-12-09 23:52:00,35.3,30.9,30.09,West,273,4.0,9.0,84,0.00,,,0.31,0,Wunderground v.1.15,2013-12-10 04:52:00,
2013-12-09 23:58:00,35.3,30.9,30.09,NNW,336,3.0,9.0,84,0.00,,,0.31,0,Wunderground v.1.15,2013-12-10 04:58:00,